createdAt,value
2019-01-12T00:00:25.360Z,37.30
2019-01-12T00:02:56.548Z,40.08
2019-01-12T00:05:27.626Z,24.30
2019-01-12T00:07:58.653Z,31.52
2019-01-12T00:10:28.672Z,23.42
2019-01-12T00:12:59.692Z,23.10
2019-01-12T00:15:30.817Z,38.38
2019-01-12T00:18:01.866Z,44.00
2019-01-12T00:20:31.730Z,39.42
2019-01-12T00:23:02.845Z,20.80
2019-01-12T00:25:33.804Z,26.68
2019-01-12T00:28:04.854Z,31.52
2019-01-12T00:30:36.528Z,34.10
2019-01-12T00:33:07.533Z,19.80
2019-01-12T00:35:38.599Z,26.60
2019-01-12T00:38:09.653Z,15.53
2019-01-12T00:40:41.393Z,26.45
2019-01-12T00:43:12.525Z,18.65
2019-01-12T00:45:43.554Z,16.60
2019-01-12T00:48:14.572Z,28.77
2019-01-12T00:50:45.673Z,14.35
2019-01-12T00:53:16.715Z,18.45
2019-01-12T00:55:46.085Z,29.63
2019-01-12T00:58:17.733Z,22.32
2019-01-12T01:00:48.850Z,27.95
2019-01-12T01:03:19.506Z,32.40
2019-01-12T01:05:49.375Z,15.60
2019-01-12T01:08:20.455Z,20.02
2019-01-12T01:10:51.561Z,17.40
2019-01-12T01:13:22.532Z,20.95
2019-01-12T01:15:53.650Z,20.02
2019-01-12T01:18:24.801Z,9.98
2019-01-12T01:20:55.815Z,30.48
2019-01-12T01:23:26.869Z,7.15
2019-01-12T01:25:57.966Z,6.87
2019-01-12T01:28:29.092Z,19.25
2019-01-12T01:31:00.210Z,18.32
2019-01-12T01:33:31.245Z,14.85
2019-01-12T01:36:01.829Z,24.23
2019-01-12T01:38:35.173Z,17.55
2019-01-12T01:41:06.181Z,17.55
2019-01-12T01:43:37.166Z,16.87
2019-01-12T01:46:08.766Z,10.63
2019-01-12T01:48:39.808Z,26.77
2019-01-12T01:51:10.765Z,13.58
2019-01-12T01:53:41.805Z,27.82
2019-01-12T01:56:12.832Z,23.98
2019-01-12T01:58:43.885Z,28.17
2019-01-12T02:01:13.717Z,20.37
2019-01-12T02:03:45.328Z,35.83
2019-01-12T02:06:16.817Z,9.20
2019-01-12T02:08:47.846Z,18.70
2019-01-12T02:11:18.845Z,14.65
2019-01-12T02:13:49.889Z,12.50
2019-01-12T02:16:20.837Z,15.83
2019-01-12T02:18:51.838Z,13.60
2019-01-12T02:21:22.880Z,17.70
2019-01-12T02:23:53.917Z,19.85
2019-01-12T02:26:24.938Z,24.57
2019-01-12T02:28:54.858Z,13.90
2019-01-12T02:31:24.821Z,8.23
2019-01-12T02:33:54.725Z,13.32
2019-01-12T02:36:25.764Z,7.50
2019-01-12T02:38:57.406Z,17.73
2019-01-12T02:41:28.360Z,6.37
2019-01-12T02:43:59.406Z,8.10
2019-01-12T02:46:31.238Z,11.90
2019-01-12T02:49:02.280Z,8.43
2019-01-12T02:51:33.290Z,7.33
2019-01-12T02:54:04.325Z,13.03
2019-01-12T02:56:35.365Z,12.53
2019-01-12T02:59:05.239Z,8.13
2019-01-12T03:01:36.753Z,8.50
2019-01-12T03:04:07.810Z,8.55
2019-01-12T03:06:38.848Z,12.03
2019-01-12T03:09:10.080Z,13.70
2019-01-12T03:11:41.087Z,5.65
2019-01-12T03:14:12.825Z,9.60
2019-01-12T03:16:44.490Z,9.90
2019-01-12T03:19:15.486Z,5.85
2019-01-12T03:21:46.465Z,16.30
2019-01-12T03:24:17.477Z,4.10
2019-01-12T03:26:48.527Z,5.80
2019-01-12T03:29:20.199Z,4.47
2019-01-12T03:31:49.999Z,5.25
2019-01-12T03:34:21.237Z,8.98
2019-01-12T03:36:52.249Z,3.60
2019-01-12T03:39:23.399Z,4.00
2019-01-12T03:41:54.437Z,4.17
2019-01-12T03:44:24.299Z,4.45
2019-01-12T03:46:54.213Z,6.83
2019-01-12T03:49:25.212Z,10.98
2019-01-12T03:51:56.300Z,7.15
2019-01-12T03:54:27.234Z,5.72
2019-01-12T03:56:58.288Z,3.85
2019-01-12T03:59:30.768Z,4.37
2019-01-12T04:02:04.204Z,4.35
2019-01-12T04:04:35.247Z,3.00
2019-01-12T04:07:06.166Z,10.20
2019-01-12T04:09:37.077Z,5.67
2019-01-12T04:12:10.445Z,7.72
2019-01-12T04:14:40.302Z,5.20
2019-01-12T04:17:10.878Z,8.30
2019-01-12T04:19:42.052Z,2.85
2019-01-12T04:22:13.061Z,7.33
2019-01-12T04:24:44.126Z,4.42
2019-01-12T04:27:15.078Z,8.13
2019-01-12T04:29:45.017Z,3.58
2019-01-12T04:32:16.034Z,7.75
2019-01-12T04:34:47.051Z,8.38
2019-01-12T04:37:17.087Z,7.97
2019-01-12T04:39:48.045Z,5.47
2019-01-12T04:42:19.084Z,2.65
2019-01-12T04:44:49.033Z,9.28
2019-01-12T04:47:20.127Z,13.55
2019-01-12T04:49:50.057Z,4.95
2019-01-12T04:52:21.038Z,7.92
2019-01-12T04:54:52.084Z,7.67
2019-01-12T04:57:23.092Z,9.95
2019-01-12T04:59:54.797Z,3.60
2019-01-12T05:02:25.818Z,11.68
2019-01-12T05:04:55.135Z,11.80
2019-01-12T05:07:25.074Z,8.73
2019-01-12T05:09:56.685Z,13.03
2019-01-12T05:12:27.721Z,8.73
2019-01-12T05:14:58.725Z,11.83
2019-01-12T05:17:29.849Z,7.42
2019-01-12T05:20:00.834Z,13.88
2019-01-12T05:22:31.839Z,10.55
2019-01-12T05:25:01.717Z,13.45
2019-01-12T05:27:32.720Z,9.43
2019-01-12T05:30:02.695Z,10.13
2019-01-12T05:32:33.769Z,10.70
2019-01-12T05:35:04.845Z,18.12
2019-01-12T05:37:35.826Z,12.18
2019-01-12T05:40:09.248Z,13.80
2019-01-12T05:42:46.986Z,12.45
2019-01-12T05:45:17.952Z,11.08
2019-01-12T05:47:48.993Z,15.48
2019-01-12T05:50:20.004Z,9.38
2019-01-12T05:52:51.041Z,8.98
2019-01-12T05:55:22.043Z,12.93
2019-01-12T05:57:53.033Z,11.63
2019-01-12T06:00:24.360Z,11.00
2019-01-12T06:02:55.392Z,4.25
2019-01-12T06:05:25.259Z,12.58
2019-01-12T06:07:56.344Z,17.42
2019-01-12T06:10:27.325Z,5.15
2019-01-12T06:12:57.237Z,4.37
2019-01-12T06:15:28.273Z,5.20
2019-01-12T06:17:59.281Z,23.02
2019-01-12T06:20:30.286Z,5.42
2019-01-12T06:22:59.694Z,4.67
2019-01-12T06:25:30.592Z,5.65
2019-01-12T06:28:01.621Z,2.90
2019-01-12T06:30:32.653Z,4.78
2019-01-12T06:33:03.690Z,12.28
2019-01-12T06:35:33.713Z,13.90
2019-01-12T06:38:03.701Z,4.62
2019-01-12T06:40:34.712Z,9.90
2019-01-12T06:43:05.727Z,4.85
2019-01-12T06:45:36.846Z,4.15
2019-01-12T06:48:07.992Z,10.50
2019-01-12T06:50:37.950Z,4.58
2019-01-12T06:53:08.917Z,8.30
2019-01-12T06:55:39.887Z,10.63
2019-01-12T06:58:11.671Z,5.40
2019-01-12T07:00:42.768Z,14.45
2019-01-12T07:03:15.264Z,3.72
2019-01-12T07:05:46.261Z,7.00
2019-01-12T07:08:17.325Z,3.45
2019-01-12T07:10:46.617Z,10.63
2019-01-12T07:13:17.570Z,7.15
2019-01-12T07:15:48.682Z,6.87
2019-01-12T07:18:22.015Z,5.17
2019-01-12T07:20:52.998Z,12.28
2019-01-12T07:23:22.926Z,9.83
2019-01-12T07:25:53.989Z,11.28
2019-01-12T07:28:24.997Z,9.48
2019-01-12T07:30:56.014Z,4.08
2019-01-12T07:33:25.893Z,7.70
2019-01-12T07:35:56.357Z,10.82
2019-01-12T07:38:27.370Z,8.98
2019-01-12T07:40:58.361Z,4.53
2019-01-12T07:43:29.365Z,8.55
2019-01-12T07:46:01.045Z,15.08
2019-01-12T07:48:32.044Z,4.42
2019-01-12T07:51:03.049Z,9.13
2019-01-12T07:53:34.086Z,14.40
2019-01-12T07:56:05.165Z,8.68
2019-01-12T07:58:36.767Z,15.95
2019-01-12T08:01:07.765Z,16.00
2019-01-12T08:03:37.674Z,7.83
2019-01-12T08:06:08.673Z,6.75
2019-01-12T08:08:39.718Z,10.50
2019-01-12T08:11:09.665Z,11.83
2019-01-12T08:13:40.680Z,7.67
2019-01-12T08:16:10.523Z,15.53
2019-01-12T08:18:41.514Z,12.37
2019-01-12T08:21:12.517Z,11.35
2019-01-12T08:23:44.157Z,11.50
2019-01-12T08:26:15.205Z,5.08
2019-01-12T08:28:46.276Z,9.13
2019-01-12T08:31:17.414Z,26.97
2019-01-12T08:33:48.534Z,18.25
2019-01-12T08:36:19.610Z,7.58
2019-01-12T08:38:49.586Z,3.27
2019-01-12T08:41:20.609Z,27.22
2019-01-12T08:43:51.692Z,20.55
2019-01-12T08:46:21.639Z,28.47
2019-01-12T08:48:52.687Z,22.75
2019-01-12T08:51:23.725Z,10.28
2019-01-12T08:53:54.725Z,8.95
2019-01-12T08:56:25.737Z,12.70
2019-01-12T08:58:56.805Z,6.97
2019-01-12T09:01:27.770Z,1.22
2019-01-12T09:03:58.878Z,12.40
2019-01-12T09:06:29.969Z,7.90
2019-01-12T09:08:59.952Z,18.05
2019-01-12T09:11:31.090Z,20.45
2019-01-12T09:14:02.149Z,12.37
2019-01-12T09:16:33.165Z,19.90
2019-01-12T09:19:04.137Z,8.70
2019-01-12T09:21:35.202Z,5.78
2019-01-12T09:24:06.277Z,18.87
2019-01-12T09:26:36.236Z,6.08
2019-01-12T09:29:07.966Z,12.35
2019-01-12T09:31:39.078Z,9.10
2019-01-12T09:34:10.099Z,7.20
2019-01-12T09:36:40.117Z,13.10
2019-01-12T09:39:13.597Z,6.10
2019-01-12T09:41:44.657Z,16.35
2019-01-12T09:44:14.717Z,12.98
2019-01-12T09:46:44.036Z,8.00
2019-01-12T09:49:15.053Z,9.00
2019-01-12T09:51:48.527Z,7.08
2019-01-12T09:54:19.558Z,9.48
2019-01-12T09:56:51.919Z,5.50
2019-01-12T09:59:22.134Z,5.12
2019-01-12T10:01:53.277Z,6.25
2019-01-12T10:04:23.134Z,3.42
2019-01-12T10:06:54.126Z,7.40
2019-01-12T10:09:24.086Z,8.48
2019-01-12T10:11:55.213Z,3.10
2019-01-12T10:14:26.410Z,3.98
2019-01-12T10:16:59.722Z,5.50
2019-01-12T10:19:30.805Z,7.65
2019-01-12T10:22:02.126Z,9.83
2019-01-12T10:24:33.195Z,2.17
2019-01-12T10:27:04.211Z,14.87
2019-01-12T10:29:35.326Z,4.45
2019-01-12T10:32:06.382Z,8.10
2019-01-12T10:34:37.637Z,5.60
2019-01-12T10:37:08.785Z,5.28
2019-01-12T10:39:39.762Z,52.40
2019-01-12T10:42:10.838Z,3.37
2019-01-12T10:44:41.898Z,7.20
2019-01-12T10:47:11.844Z,16.37
2019-01-12T10:49:42.964Z,10.00
2019-01-12T10:52:13.958Z,8.53
2019-01-12T10:54:45.086Z,3.87
2019-01-12T10:57:16.137Z,8.80
2019-01-12T10:59:47.205Z,7.20
2019-01-12T11:02:18.350Z,9.60
2019-01-12T11:04:49.437Z,4.25
2019-01-12T11:07:19.751Z,20.25
2019-01-12T11:09:49.811Z,8.05
2019-01-12T11:12:20.846Z,8.30
2019-01-12T11:14:52.006Z,8.48
2019-01-12T11:17:23.077Z,8.73
2019-01-12T11:19:54.089Z,14.60
2019-01-12T11:22:25.088Z,2.80
2019-01-12T11:24:57.768Z,8.00
2019-01-12T11:27:28.956Z,4.60
2019-01-12T11:30:00.205Z,10.50
2019-01-12T11:32:30.185Z,5.33
2019-01-12T11:35:01.279Z,10.23
2019-01-12T11:37:31.174Z,1.95
2019-01-12T11:40:02.939Z,10.98
2019-01-12T11:42:32.310Z,12.43
2019-01-12T11:45:03.326Z,5.55
2019-01-12T11:47:34.337Z,5.37
2019-01-12T11:50:05.398Z,8.53
2019-01-12T11:52:36.442Z,10.68
2019-01-12T11:55:09.645Z,6.62
2019-01-12T11:57:40.689Z,17.87
2019-01-12T12:00:14.837Z,3.42
2019-01-12T12:02:45.950Z,3.80
2019-01-12T12:05:17.339Z,5.03
2019-01-12T12:07:48.520Z,12.55
2019-01-12T12:10:22.407Z,7.95
2019-01-12T12:12:53.494Z,6.20
2019-01-12T12:15:25.117Z,6.40
2019-01-12T12:17:56.146Z,8.85
2019-01-12T12:20:28.286Z,9.80
2019-01-12T12:22:59.357Z,7.08
2019-01-12T12:25:30.434Z,7.72
2019-01-12T12:28:00.342Z,11.18
2019-01-12T12:30:31.653Z,3.52
2019-01-12T12:33:02.718Z,1.70
2019-01-12T12:35:37.713Z,9.10
2019-01-12T12:38:04.621Z,4.78
2019-01-12T12:40:34.677Z,11.25
2019-01-12T12:43:05.707Z,4.22
2019-01-12T12:45:37.379Z,5.75
2019-01-12T12:48:08.485Z,3.62
2019-01-12T12:50:39.486Z,4.55
2019-01-12T12:53:10.558Z,5.70
2019-01-12T12:55:41.637Z,11.25
2019-01-12T12:58:12.712Z,9.95
2019-01-12T13:00:43.237Z,22.90
2019-01-12T13:03:13.193Z,5.35
2019-01-12T13:05:46.798Z,8.78
2019-01-12T13:08:20.362Z,12.47
2019-01-12T13:10:52.014Z,6.75
2019-01-12T13:13:23.535Z,11.38
2019-01-12T13:15:54.849Z,9.45
2019-01-12T13:18:25.915Z,7.90
2019-01-12T13:20:56.962Z,10.75
2019-01-12T13:23:27.995Z,14.28
2019-01-12T13:25:59.076Z,14.68
2019-01-12T13:28:29.014Z,10.93
2019-01-12T13:31:00.036Z,12.80
2019-01-12T13:33:29.945Z,6.08
2019-01-12T13:36:01.040Z,12.37
2019-01-12T13:38:31.026Z,14.87
2019-01-12T13:41:02.038Z,11.48
2019-01-12T13:43:31.874Z,22.20
2019-01-12T13:46:02.897Z,24.40
2019-01-12T13:48:32.941Z,13.40
2019-01-12T13:51:02.902Z,11.63
2019-01-12T13:53:34.040Z,8.58
2019-01-12T13:56:05.057Z,14.58
2019-01-12T13:58:36.205Z,12.85
2019-01-12T14:01:07.241Z,12.07
2019-01-12T14:03:37.185Z,18.23
2019-01-12T14:06:08.156Z,10.03
2019-01-12T14:08:39.248Z,13.72
2019-01-12T14:11:10.346Z,7.50
2019-01-12T14:13:42.425Z,16.52
2019-01-12T14:16:12.410Z,17.07
2019-01-12T14:18:42.433Z,26.27
2019-01-12T14:21:13.530Z,20.75
2019-01-12T14:23:44.677Z,10.53
2019-01-12T14:26:15.734Z,14.80
2019-01-12T14:28:46.853Z,19.90
2019-01-12T14:31:17.902Z,18.70
2019-01-12T14:33:48.929Z,25.57
2019-01-12T14:36:20.110Z,30.08
2019-01-12T14:38:50.433Z,18.82
2019-01-12T14:41:21.629Z,23.95
2019-01-12T14:43:51.711Z,20.37
2019-01-12T14:46:22.799Z,21.07
2019-01-12T14:48:54.200Z,36.20
2019-01-12T14:51:25.034Z,30.75
2019-01-12T14:53:56.111Z,52.90
2019-01-12T14:56:34.131Z,25.70
2019-01-12T14:59:04.367Z,21.05
2019-01-12T15:01:36.270Z,38.85
2019-01-12T15:04:07.402Z,34.00
2019-01-12T15:06:37.483Z,29.95
2019-01-12T15:09:08.710Z,39.33
2019-01-12T15:11:39.919Z,40.05
2019-01-12T15:14:11.759Z,57.17
2019-01-12T15:16:44.279Z,47.20
2019-01-12T15:19:15.591Z,38.15
2019-01-12T15:21:46.869Z,28.30
2019-01-12T15:24:18.124Z,22.70
2019-01-12T15:26:48.309Z,38.17
2019-01-12T15:29:19.476Z,26.12
2019-01-12T15:31:50.792Z,45.55
2019-01-12T15:34:21.989Z,30.12
2019-01-12T15:36:53.140Z,50.33
2019-01-12T15:39:24.357Z,40.43
2019-01-12T15:41:55.476Z,26.62
2019-01-12T15:44:27.270Z,29.30
2019-01-12T15:46:57.400Z,33.00
2019-01-12T15:49:28.757Z,52.23
2019-01-12T15:52:00.030Z,41.00
2019-01-12T15:54:31.237Z,48.50
2019-01-12T15:57:00.709Z,24.18
2019-01-12T15:59:32.362Z,13.32
2019-01-12T16:02:03.827Z,39.08
2019-01-12T16:04:34.589Z,46.05
2019-01-12T16:07:04.590Z,55.35
2019-01-12T16:09:37.167Z,38.75
2019-01-12T16:12:07.190Z,67.55
2019-01-12T16:14:38.349Z,37.45
2019-01-12T16:17:09.670Z,52.23
2019-01-12T16:19:40.870Z,55.50
2019-01-12T16:22:12.276Z,32.35
2019-01-12T16:24:42.549Z,38.98
2019-01-12T16:27:13.950Z,42.43
2019-01-12T16:29:45.354Z,29.55
2019-01-12T16:32:16.750Z,18.23
2019-01-12T16:34:48.079Z,21.30
2019-01-12T16:37:18.230Z,45.48
2019-01-12T16:39:49.600Z,48.50
2019-01-12T16:42:21.078Z,44.18
2019-01-12T16:44:51.710Z,60.70
2019-01-12T16:47:23.070Z,22.80
2019-01-12T16:49:54.312Z,37.75
2019-01-12T16:52:24.310Z,51.68
2019-01-12T16:54:55.397Z,40.40
2019-01-12T16:57:25.557Z,52.95
2019-01-12T16:59:57.775Z,70.97
2019-01-12T17:02:29.236Z,20.23
2019-01-12T17:05:02.139Z,33.42
2019-01-12T17:07:32.469Z,30.32
2019-01-12T17:10:03.720Z,28.05
2019-01-12T17:12:33.992Z,16.60
2019-01-12T17:15:05.472Z,22.60
2019-01-12T17:17:35.550Z,35.03
2019-01-12T17:20:10.836Z,86.02
2019-01-12T17:22:41.030Z,32.50
2019-01-12T17:25:12.309Z,49.88
2019-01-12T17:27:47.638Z,71.40
2019-01-12T17:30:21.119Z,49.10
2019-01-12T17:32:51.509Z,50.30
2019-01-12T17:35:22.351Z,39.70
2019-01-12T17:37:53.150Z,19.95
2019-01-12T17:40:26.552Z,24.15
2019-01-12T17:42:56.910Z,33.67
2019-01-12T17:45:27.189Z,49.98
2019-01-12T17:47:58.631Z,38.15
2019-01-12T17:50:30.019Z,30.05
2019-01-12T17:53:02.674Z,55.00
2019-01-12T17:55:34.205Z,31.00
2019-01-12T17:58:05.839Z,17.82
2019-01-12T18:00:40.596Z,36.13
2019-01-12T18:03:12.121Z,18.07
2019-01-12T18:05:44.389Z,19.52
2019-01-12T18:08:17.252Z,24.57
2019-01-12T18:10:48.749Z,8.83
2019-01-12T18:13:20.069Z,13.48
2019-01-12T18:15:51.963Z,19.07
2019-01-12T18:18:23.202Z,26.85
2019-01-12T18:20:54.509Z,58.80
2019-01-12T18:23:26.398Z,52.48
2019-01-12T18:25:57.951Z,51.18
2019-01-12T18:28:28.197Z,46.65
2019-01-12T18:31:01.950Z,50.30
2019-01-12T18:33:33.236Z,38.83
2019-01-12T18:36:04.592Z,30.55
2019-01-12T18:38:35.910Z,35.98
2019-01-12T18:41:06.061Z,28.30
2019-01-12T18:43:37.346Z,36.17
2019-01-12T18:46:12.121Z,18.25
2019-01-12T18:48:41.072Z,27.37
2019-01-12T18:51:12.353Z,28.05
2019-01-12T18:53:43.537Z,32.67
2019-01-12T18:56:13.623Z,39.60
2019-01-12T18:58:44.836Z,24.82
2019-01-12T19:01:16.678Z,37.83
2019-01-12T19:03:47.888Z,33.67
2019-01-12T19:06:18.034Z,33.67
2019-01-12T19:08:49.229Z,17.52
2019-01-12T19:11:19.145Z,34.40
2019-01-12T19:13:50.884Z,27.77
2019-01-12T19:16:22.141Z,48.15
2019-01-12T19:18:54.635Z,37.45
2019-01-12T19:21:25.876Z,31.10
2019-01-12T19:23:57.014Z,48.60
2019-01-12T19:26:26.429Z,41.83
2019-01-12T19:28:58.321Z,39.65
2019-01-12T19:31:29.495Z,26.37
2019-01-12T19:34:00.882Z,28.17
2019-01-12T19:36:32.741Z,26.05
2019-01-12T19:39:04.686Z,61.13
2019-01-12T19:41:34.781Z,18.60
2019-01-12T19:44:05.953Z,30.90
2019-01-12T19:46:38.256Z,28.12
2019-01-12T19:49:09.323Z,21.80
2019-01-12T19:51:40.353Z,35.85
2019-01-12T19:54:11.514Z,36.90
2019-01-12T19:56:41.601Z,27.58
2019-01-12T19:59:13.867Z,24.32
2019-01-12T20:01:45.141Z,20.08
2019-01-12T20:04:16.341Z,23.73
2019-01-12T20:06:47.394Z,28.00
2019-01-12T20:09:18.532Z,43.95
2019-01-12T20:12:54.575Z,20.77
2019-01-12T20:15:26.747Z,24.92
2019-01-12T20:17:56.813Z,31.00
2019-01-12T20:20:26.787Z,25.75
2019-01-12T20:22:56.993Z,25.65
2019-01-12T20:25:30.025Z,24.10
2019-01-12T20:28:01.242Z,18.15
2019-01-12T20:30:37.182Z,20.77
2019-01-12T20:33:26.580Z,24.60
2019-01-12T20:36:05.615Z,17.27
2019-01-12T20:38:45.563Z,24.05
2019-01-12T20:41:31.856Z,27.52
2019-01-12T20:44:18.161Z,43.17
2019-01-12T20:47:01.282Z,18.10
2019-01-12T20:49:35.517Z,12.88
2019-01-12T20:52:18.722Z,38.98
2019-01-12T20:54:58.972Z,24.47
2019-01-12T20:57:52.605Z,22.65
2019-01-12T21:00:48.284Z,30.65
2019-01-12T21:03:44.962Z,31.93
2019-01-12T21:06:43.081Z,16.42
2019-01-12T21:09:33.873Z,34.10
2019-01-12T21:12:30.433Z,14.70
2019-01-12T21:15:02.891Z,24.40
2019-01-12T21:17:32.942Z,15.70
2019-01-12T21:20:02.994Z,14.93
2019-01-12T21:22:32.394Z,7.62
2019-01-12T21:25:03.382Z,18.90
2019-01-12T21:27:33.306Z,15.63
2019-01-12T21:30:04.448Z,26.97
2019-01-12T21:35:37.338Z,16.95
2019-01-12T21:38:07.357Z,27.15
2019-01-12T21:40:38.453Z,15.10
2019-01-12T21:43:08.531Z,37.70
2019-01-12T21:45:40.399Z,19.73
2019-01-12T21:48:11.483Z,14.58
2019-01-12T21:50:41.500Z,25.27
2019-01-12T21:53:11.441Z,49.05
2019-01-12T21:55:43.171Z,20.82
2019-01-12T21:58:15.008Z,26.93
2019-01-12T22:00:46.042Z,25.80
2019-01-12T22:03:17.166Z,25.95
2019-01-12T22:05:47.261Z,23.27
2019-01-12T22:08:20.802Z,15.93
2019-01-12T22:10:50.749Z,27.80
2019-01-12T22:13:21.807Z,15.00
2019-01-12T22:15:52.852Z,24.18
2019-01-12T22:18:24.010Z,32.48
2019-01-12T22:20:54.010Z,38.30
2019-01-12T22:23:25.009Z,34.15
2019-01-12T22:25:56.141Z,38.53
2019-01-12T22:28:27.081Z,43.40
2019-01-12T22:30:58.091Z,36.20
2019-01-12T22:33:29.745Z,56.37
2019-01-12T22:35:59.761Z,52.00
2019-01-12T22:38:30.761Z,60.75
2019-01-12T22:41:01.802Z,26.07
2019-01-12T22:43:32.842Z,33.78
2019-01-12T22:46:03.882Z,37.88
2019-01-12T22:48:34.923Z,14.90
2019-01-12T22:51:05.962Z,60.15
2019-01-12T22:53:35.836Z,51.50
2019-01-12T22:56:05.214Z,17.62
2019-01-12T22:58:36.172Z,62.75
2019-01-12T23:01:16.970Z,30.32
2019-01-12T23:03:49.160Z,29.92
2019-01-12T23:06:20.219Z,47.53
2019-01-12T23:08:51.330Z,62.17
2019-01-12T23:11:22.457Z,49.93
2019-01-12T23:13:53.620Z,40.20
2019-01-12T23:16:25.329Z,15.03
2019-01-12T23:18:56.502Z,43.08
2019-01-12T23:21:26.342Z,48.92
2019-01-12T23:23:57.313Z,54.73
2019-01-12T23:26:27.221Z,75.90
2019-01-12T23:28:58.250Z,41.42
2019-01-12T23:31:28.282Z,71.12
2019-01-12T23:33:59.322Z,61.95
2019-01-12T23:36:30.329Z,34.85
2019-01-12T23:39:01.337Z,25.95
2019-01-12T23:41:32.450Z,42.23
2019-01-12T23:44:03.572Z,63.87
2019-01-12T23:46:35.197Z,40.73
2019-01-12T23:49:06.257Z,96.20
2019-01-12T23:51:37.361Z,112.47
2019-01-12T23:54:08.463Z,77.45
2019-01-12T23:56:38.409Z,97.80
2019-01-12T23:59:08.363Z,74.27
